Estación Meteorológica Peña el Pijo (Robertgarden) [ 11/12/18 20:34:28 CET ]

Fecha Hora Presion(HPa) Temp (°C) Humedad % Rocio (°C) Viento ( m/s) Direccion Lluvia 1Hora(mm) Lluvia 24H(mm) LLuvia Total(mm)
2018-Jul-25 01:01:52 1010.600 18.9 46 7.0         269.36
2018-Jul-25 02:01:47 1010.500 18.2 46 6.3         269.36
2018-Jul-25 03:01:34 1010.400 16.8 47 5.4         269.36
2018-Jul-25 04:01:34 1010.100 15.6 51 5.5         269.36
2018-Jul-25 05:01:36 1010.000 15.1 50 4.8         269.36
2018-Jul-25 06:01:33 1009.700 14.4 49 3.8         269.36
2018-Jul-25 07:01:48 1010.000 13.6 51 3.7         269.36
2018-Jul-25 08:01:46 1010.000 14.2 56 5.5         269.36
2018-Jul-25 09:02:02 1010.400 20.4 45 8.0         269.36
2018-Jul-25 10:01:57 1010.100 26.8 35 10.0         269.36
2018-Jul-25 11:01:42 1009.700 31.1 26 9.1 1.2 S     269.36
2018-Jul-25 12:01:46 1009.500 35.8 21 10.0         269.36
2018-Jul-25 13:01:40 1009.100 35.6 20 9.2         269.36
2018-Jul-25 14:01:44 1008.800 35.8 18 7.4 0.6 WNW     269.36
2018-Jul-25 15:01:39 1008.300 37.3 15 5.6         269.36
2018-Jul-25 16:01:50 1008.000 37.5 18 8.8 1.1 SSW     269.36
2018-Jul-25 17:01:33 1007.900 36.8 21 10.8         269.36
2018-Jul-25 18:01:43 1007.800 34.4 27 12.5         269.36
2018-Jul-25 19:01:39 1008.000 31.1 31 11.9         269.36
2018-Jul-25 20:01:53 1008.200 30.4 34 12.7         269.36
2018-Jul-25 21:01:33 1008.400 27.6 41 13.2         269.36
2018-Jul-25 22:01:46 1009.200 25.2 46 12.7         269.36
2018-Jul-25 23:01:55 1010.000 21.6 48 10.1         269.36

Temperatura Máxima:37°    Temperatura Mínima:13°
Presión Máxima:1010.600 Hpa    Presión Mínima:1007.800 Hpa


Volver